Weather at King Khaled International Airport

Public forecast

Using degrees Celsius for public forecast. Weather courtesy of forecast.io.

Current aviation weather report (METAR) for King Khaled International Airport

Retrieved 2020/10/31 18:00 UTC (59 minutes ago):

OERK 311800Z 13002KT CAVOK 22/08 Q1019 NOSIG

Aviation forecast (TAF) for King Khaled International Airport

Retrieved 2020/10/31 18:33 UTC (26 minutes ago):

TAF OERK 311700Z 3118/0124 VRB03KT CAVOK BECMG 0106/0108 16010KT